Timeline UpdatesTrip UpdatesNews PostsPvt PostsTravel TipsAdmin PostsConv PostsFollowed PostsChat RequestsBlog PostsPNR Posts

Disclaimer
Search
 
 
Wed Jul 23, 2014 09:12:20 ISTHomeTrainsΣChainsAtlasPNRForumGalleryNewsFAQTripsMembersLoginFeedback
No Recent News for this Train
Other Trains in the News **new
Latest...
.
Thu Mar 27, 2014 (05:38PM)
⇐ Return Journey: Train# 17210

17209/Seshadri Express

Mar 23 2014 (3:57PM)
Change Departure Station:
Change Arrival Station:
Post a Train Travel TipPost a Train Travel Tip **new
Post a Comment/Question/Picture/VideoPost a Comment/Question/Picture/Video
Inaugural Run
Tue Dec 24, 2002
Pantry/Catering
✕ NO Pantry Car
✓ Catering Avbl
RSA - Rake Sharing
17209 / 17210 / 17235 / 17236 has RSA.
Rake/Coach Composition
Loco-SLRD-UR-UR-A2-A1-BE1-B2-B1-S9-S8-S7- S6-S5-S4-S3-S2-S1-UR-SLR
Loco
SBC - BZA AJJ/BZA WAM 4/WAP 1 BZA -...
Read more...
CCT (Mu'ed/Single) WDP 1(BZA Shed) .
News    PNR    Forum    Time-Table    Availability    Fare Chart    Map    Arr/Dep History    Trips    Gallery    ΣChains    X/O    Timeline    
Travel Time: 9h 5m    15 halts    Distance: 427 km    Avg Speed: 47 km/hr
Type: Mail/Express
Zone: SCR/South Central
Departs @ 11:00
Platform# 1
SMTWTFS
Bangalore City Junction/SBC 
Arrives @ 20:05
Platform# 2
SMTWTFS
Gudur Junction/GDR 

15 halts. 60 intermediate Stations between Bangalore City Junction and Gudur Junction

Hide intermediate Stations  Show Old Time-Table

#CodeStation NameX/OArrivesAvgDepartsAvgHaltPFDay#KmSpeedElevZoneAddress
1SBC»Bangalore City Junction (10)»  -11:00-110.027903mSWRBengaluru-560023, Karnataka
2BNCBangalore Cantt. (4)X  11:10-11:12-2m214.547929mSWRBengaluru-560052, Karnataka
2.1BNCEBangalore East (2)  11:15-11:15-  16.9 47915mSWRBangalore, Karnataka
2.2BYPLBaiyyappanahalli (2)  11:20-11:20-  110.9 47913mSWRBengaluru-560038, Karnataka
3KJMKrishnarajapuram (4)X  11:24-11:26-2m2113.862909mSWRBengaluru-560016, Karnataka
3.1SGWFWhitefield Satellite  11:33-11:33-  120.7 62885mSWRBangalore, Karnataka
4WFDWhitefield (4)  11:35-11:36-1m2123.286875mSWR560067, Karnataka
4.1DKNDevangonthi (3)X  11:41-11:41-  131.0 86897mSWRSaukya Rd, Karnataka
5MLOMalur (4)11:50-11:51-1m2143.244905mSWRKolar, Karnataka
5.1BFWByatrayanhalliX  11:58-11:58-  148.6 44878mSWRMalur, Karnataka
5.2TCLTyakal (2)X  12:11-12:11-  158.0 44864mSWRKolar, Karnataka
5.3MZVMaralahalliO  12:17-12:17-  162.1 44870mSWRMalur-Bangarapet Rd, Karnataka
6BWTBangarapet Junction (6)  12:28-12:30-2m4170.273815mSWRBangarapet, Karnataka
6.1VRDPVaradapur  12:34-12:34-  174.8 73811mSWRUnnamed Rd, Karnataka
6.2KSMKamasamudram  12:40-12:40-  182.2 73789mSWRKolar Gold Fields, Karnataka
6.3BSMBisanattam  12:46-12:46-  189.2 73769mSWRKR Rd, Andhra Pradesh
6.4GDPGudupalliO  12:50-12:50-  194.4 73746mSWRChittoor, Andhra Pradesh
7KPNKuppam (2)O  12:58-13:00-2m--1104.342688mSWRKuppam, Andhra Pradesh
7.1MARMulanur (1)X  13:18-13:18-  1116.6 42625mSWRNational Highway 46, Andhra Pradesh
7.2PUPatchurXO  13:33-13:33-  1127.5 42497mSWRVellore, Tamil Nadu
7.3SKPTSomanayakkanpattiX  13:45-13:45-  1135.7 42420mSWRNational Highway 46, Tamil Nadu
8JTJJolarpettai Junction (5)XO  13:58-14:00-2m31144.649405mSRJolarpettai, Tamil Nadu
8.1KDYKettandapatti  14:09-14:09-  1151.7 49378mSRNH 46, Tamil Nadu
9VNVaniyambadiX  14:19-14:20-1m--1160.191357mSRVaniyambadi, Tamil Nadu
9.1VGMVinnamangalam  14:25-14:25-  1168.4 91340mSRNH 46, Tamil Nadu
9.2ABAmburX  14:31-14:31-  1176.3 91330mSRAmbur, Tamil Nadu
9.3PCKMPachachakupam  14:35-14:35-  1182.2 91307mSRNH 46, Tamil Nadu
9.4MPIMelpatti  14:39-14:39-  1188.2 91290mSRSH 130, Tamil Nadu
9.5VLTValathoor  14:42-14:42-  1193.9 91284mSRSH 130, Tamil Nadu
9.6MEHMelalathur  14:46-14:46-  1199.0 91275mSRSH 130, Tamil Nadu
10GYMGudiyattam (3)  14:49-14:50-1m21204.042269mSRVellore, Tamil Nadu
10.1KVNKavanur  14:58-14:58-  1209.9 42250mSRSH 59, Tamil Nadu
10.2VJVirinchipuram  15:07-15:07-  1216.0 42237mSRSH 59, Tamil Nadu
10.3LTILatteri  15:14-15:14-  1220.5 42237mSRSH 59, Tamil Nadu
11KPDKatpadi Junction (5)X  15:25-15:30-5m41228.552213mSRVellore 632007, Tamil Nadu
11.1BUMBommasamudram  15:41-15:41-  1238.4 52243mSCRNH 4, Andhra Pradesh
11.2RAMRamapuram (2)X  15:48-15:48-  1244.5 525mSCRRamapuram, Andhra Pradesh
11.3PYXPeyanapalli  15:55-15:55-  1250.5 52300mSCRRayalaseema Region, Andhra Pradesh
11.4SIESiddampalliX  15:59-15:59-  1253.8 52307mSCRRayalaseema Region, Andhra Pradesh
12CTOChittoor (3)  16:08-16:10-2m11261.578305mSCR517001., Andhra Pradesh
12.1RVSNRVS NagarX  16:16-16:16-  1269.4 78307mSCRRVS Nagar, Andhra Pradesh
12.2PTTPutalapattu  16:25-16:25-  1280.6 78330mSCRRayalaseema Region, Andhra Pradesh
13PAKPakala Junction (3)  16:33-16:35-2m11291.530371mSCRKavalivari Palle, Andhra Pradesh
13.1PAMPanapakam (1)X  17:03-17:03-  1305.3 30281mSCRChittoor District, Andhra Pradesh
13.2MNPTMungilipattuX  17:16-17:16-  1311.7 30257mSCRChittoor-Tirupati Rd, Andhra Pradesh
13.3KENKotala  17:32-17:32-  1319.8 30219mSCRRayalaseema Region, Andhra Pradesh
13.4CGIChandragiri (1)  17:36-17:36-  1321.6 30204mSCRNarasingapuram, Andhra Pradesh
13.5TPWTirupati West Halt (1)  17:57-17:57-  1331.8 30160mSCRTirupati, Andhra Pradesh
14TPTYTirupati Main (5)  18:00-18:05-5m21333.440150mSCRChittoor Distt, Andhra Pradesh
14.1TCNRTiruchanur  18:15-18:15-  1340.2 40126mSCRTirupati, Andhra Pradesh
15RURenigunta Junction (5)X  18:20-18:30-10m41343.377113mSCRChittoor District, Andhra Pradesh
15.1YPDYerpedu (2)  18:38-18:38-  1353.2 7780mSCRChittoor, Andhra Pradesh
15.2RCGRachagunnariX  18:43-18:43-  1359.5 7782mSCRRayalaseema Region, Andhra Pradesh
16KHTSri Kalahasti (2)  18:48-18:50-2m21366.54868mSCRChittoor District, Andhra Pradesh
16.1AKYAkkurti (2)  18:56-18:56-  1371.2 4869mSCRSrikalahasti, Andhra Pradesh
16.2YLKYellakaru (1)  19:05-19:05-  1378.7 4873mSCRCoastal Andhra Region, Andhra Pradesh
16.3YALYataluru  19:12-19:12-  1384.5 4878mSCRCoastal Andhra Region, Andhra Pradesh
16.4VKIVenkatagiri (3)  19:20-19:20-  1391.0 4877mSCRNellore District, Andhra Pradesh
16.5NDZNidigallu (2)X  19:30-19:30-  1398.9 4855mSCRSiddavaram, Andhra Pradesh
16.6VDDVendodu (2)X  19:41-19:41-  1407.5 4855mSCRNellore, Andhra Pradesh
16.7KQAKondagunta (1)  19:53-19:53-  1416.9 4853mSCRNellore, Andhra Pradesh
17GDR•Gudur Junction (3)•X  20:05-20:07-2m21426.710019mSCRGudur, Andhra Pradesh
17.1MBLManubolu (3)  20:13-20:13-  1436.2 10022mSCRManubolu Railway Station, Andhra Pradesh
17.2KMLPKommarapudi (2)X  20:16-20:16-  1441.9 1008mSCRNational Highway 5, Andhra Pradesh
17.3VKTVenkatachalam (3)  20:20-20:20-  1448.6 10026mSCRVenkatachelam, Andhra Pradesh
17.4VDEVedayapalem (2)X  20:26-20:26-  1457.9 10027mSCRNellore, Andhra Pradesh
17.5NLSNellore South (2)  20:29-20:29-  1463.2 10022mSCRNellore, Andhra Pradesh
18NLRNellore (4)  20:30-20:32-2m21465.28221mSCRNellore, Andhra Pradesh
18.1PGUPadugupadu (3)  20:35-20:35-  1469.2 8221mSCRKovur, Andhra Pradesh
18.2KJJKodavaluru (2)  20:40-20:40-  1476.6 8217mSCRNational Highway 5, Andhra Pradesh
18.3TMCTalamanchi  20:44-20:44-  1481.4 8215mSCRNational Highway 5, Andhra Pradesh
18.4AXRAlluru RoadX  20:52-20:52-  1493.0 828mSCRNational Highway 5, Andhra Pradesh
18.5BTTRBitragunta (2)  20:57-20:57-  1499.5 8215mSCRBitragunta, Andhra Pradesh
18.6SVPMSri Venkateswarapalem (2)X  21:00-21:00-  1503.6 8222mSCRNational Highway 5, Andhra Pradesh
18.7KVZKavali (4)  21:09-21:09-  1515.9 8221mSCRKavali, Andhra Pradesh
18.8TTUTettu (2)XO  21:19-21:19-  1530.2 8224mSCRNational Highway 5, Andhra Pradesh
18.9UPDUlavapadu (2)X  21:29-21:29-  1544.0 8213mSCRUlavapadu, Andhra Pradesh
18.10SKMSingarayakonda (3)X  21:36-21:36-  1553.7 8226mSCRSingarayakonda, Andhra Pradesh
18.11TNRTanguturu (2)  21:43-21:43-  1563.3 8210mSCRTanguturu, Andhra Pradesh
18.12SDMSurareddipalem (3)X  21:49-21:49-  1571.6 829mSCRSurareddy Palem, Andhra Pradesh
19OGLOngole (3)  21:57-21:59-2m11581.98212mSCROngole, Andhra Pradesh
19.1KRVKaravadi (2)  22:05-22:05-  1590.5 8211mSCRKaravadi, Andhra Pradesh
19.2ANBAmmanabrolu (3)  22:10-22:10-  1596.8 8216mSCRAmmanabrolu, Andhra Pradesh
19.3RPRLRaparla Halt (2)  22:12-22:12-  1600.1 829mSCRNH 214A, Andhra Pradesh
19.4UGDUppugunduru (2)X  22:15-22:15-  1604.5 825mSCRUppugundur Machavaram Rd, Andhra Pradesh
19.5CJMChinnaganjam (3)  22:20-22:20-  1611.0 829mSCRChinna Ganjam, Andhra Pradesh
19.6KVDUKadavakuduru (2)XO  22:24-22:24-  1615.6 828mSCRKadavakuduru, Andhra Pradesh
19.7KPLLKottapandillapalli (2)  22:27-22:27-  1619.9 828mSCRNH 214A, Andhra Pradesh
19.8VTMVetapalem (3)XO  22:29-22:29-  1623.4 828mSCRVetapalem, Andhra Pradesh
19.9JAQJandrapeta (2)O  22:33-22:33-  1628.1 829mSCRChirala, Andhra Pradesh
20CLXChirala (4)X  22:35-22:36-1m--1631.3758mSCRChirala, Andhra Pradesh
20.1IPPNIpurupalem Halt (1)  22:39-22:39-  1635.4 758mSCRIpurupalem, Andhra Pradesh
20.2IPPMIpurupalem  22:39-22:39-  1635.5 758mSCRIpurupalem, Andhra Pradesh
20.3SPFStuartpuramX  22:43-22:43-  1639.5 759mSCRBapatla West Rural, Andhra Pradesh
21BPPBapatla (3)X  22:48-22:49-1m31646.35210mSCRBapatla, Andhra Pradesh
21.1APLAppikatla (2)X  22:59-22:59-  1655.1 527mSCRGBC Rd, Andhra Pradesh
21.2MCVMMachavaram  23:07-23:07-  1661.9 527mSCRMachavaram, Andhra Pradesh
21.3NDONidubrolu (3)  23:13-23:13-  1666.9 529mSCRNidubrolu, Andhra Pradesh
21.4MDKUModukuru (2)X  23:21-23:21-  1673.8 5210mSCRModukuru, Andhra Pradesh
21.5TSRTsunduru (3)  23:25-23:25-  1677.4 5212mSCRTsunduru, Andhra Pradesh
21.6VRUValiveruXO  23:30-23:30-  1681.6 5210mSCRValiveru Railway Gate, Andhra Pradesh
22TELTenali Junction (5)XO  23:38-23:40-2m--1689.02516mSCRTel: 08644-227834, Andhra Pradesh
22.1KLXKolakalur  23:55-23:55-  1695.0 2515mSCRNandivelugu Rd, Andhra Pradesh
22.2DIGDuggirala (3)  00:03-00:03-  2698.6 2516mSCRDuggirala, Andhra Pradesh
22.3MODMorampudi  00:11-00:11-  2702.0 2516mSCRMorampudi, Andhra Pradesh
22.4CLVRChiluvur  00:17-00:17-  2704.5 2520mSCRChiluvuru, Andhra Pradesh
22.5PVDPeddavadiapudi (3)X  00:26-00:26-  2708.3 2520mSCRKL University to NH 5, Andhra Pradesh
22.6KAQKolanukonda (1)  00:36-00:36-  2712.1 2522mSCRNational Highway 5, Andhra Pradesh
22.7KCCKrishna Canal Junction (6)X  00:44-00:44-  2715.5 2521mSCRTadepalli, Andhra Pradesh
23BZAVijayawada Junction (10)X00:55-01:15-20m12720.25224mSCRVijayawada 520001, Andhra Pradesh
23.1MDUNMadhura Nagar  01:20-01:20-  2724.5 5221mSCRVijayawada, Andhra Pradesh
23.2RMVRamavarappadu  01:24-01:24-  2727.9 5219mSCRVijayawada, Andhra Pradesh
23.3NDMNidamanuru  01:31-01:31-  2733.8 5216mSCRVijayawada, Andhra Pradesh
23.4UPLUppalur  01:37-01:37-  2739.5 520mSCRKrishna, Andhra Pradesh
23.5TGUTarigoppula  01:44-01:44-  2745.5 520mSCRKrishna, Andhra Pradesh
23.6IDPIndupalli  01:49-01:49-  2749.9 520mSCRKrishna, Andhra Pradesh
23.7VPGVentrapragada  01:54-01:54-  2754.0 520mSCRKrishna, Andhra Pradesh
23.8DPDDosapadu  01:57-01:57-  2756.6 520mSCRKrishna, Andhra Pradesh
24GDVGudivada Junction (3)  02:05-02:07-2m12763.46111mSCRKrishna District, Andhra Pradesh
24.1OTRMoturu  02:14-02:14-  2770.8 616mSCRCoastal Andhra Region, Andhra Pradesh
24.2GUKGuntakonduru  02:18-02:18-  2774.1 616mSCRP.P.Road, Andhra Pradesh
24.3PSLPPasalapudi  02:20-02:20-  2776.5 616mSCRPutlacheruvu, Andhra Pradesh
24.4PCUPutlacheruvu  02:22-02:22-  2778.9 615mSCRPutlacheruvu, Andhra Pradesh
24.5MVPMokhasa Kalavapudi  02:25-02:25-  2781.4 617mSCRPutlacheruvu, Andhra Pradesh
24.6MDVLMandavalli  02:28-02:28-  2784.5 6110mSCRMandavalli, Andhra Pradesh
25KKLRKaikaluru (2)  02:36-02:37-1m--2792.7558mSCRKaikalur, Andhra Pradesh
25.1PLVAPallevada  02:44-02:44-  2798.8 558mSCRPallevada, Andhra Pradesh
26AKVDAkividu (3)  02:55-02:56-1m--2809.3515mSCRCoast Andhra, Andhra Pradesh
26.1CKVCherukuvada  03:03-03:03-  2815.0 5110mSCRCherukawada, Andhra Pradesh
26.2UNDIUndiX  03:08-03:08-  2819.3 517mSCRWest Godavari, Andhra Pradesh
27BVRTBhimavaram Town (2)  03:17-03:18-1m--2827.0448mSCRBhimavaram, Andhra Pradesh
27.1VNDVendra  03:28-03:28-  2834.1 4411mSCRMogollu Rd, Andhra Pradesh
27.2LKSHLakshminarayanapuramX  03:32-03:32-  2837.1 4413mSCRL Narayanapuram, Andhra Pradesh
27.3AVLIAravalli  03:36-03:36-  2839.8 4410mSCRWest Godavari, Andhra Pradesh
27.4MCLEManchili  03:42-03:42-  2844.9 4413mSCRCoastal Andhra Region, Andhra Pradesh
28ALAttili (1)  03:45-03:46-1m12846.83714mSCRWest Godavari, Andhra Pradesh
28.1RLGRelangi (2)  03:53-03:53-  2851.5 3712mSCRRelangi, Andhra Pradesh
28.2VPUVelpuru  03:58-03:58-  2854.2 3714mSCRVelupuru, Andhra Pradesh
29TNKUTanuku (2)X  04:03-04:05-2m--2857.42912mSCR131, Andhra Pradesh
29.1STVASatyavada  04:16-04:16-  2862.6 2915mSCRCoastal Andhra Region, Andhra Pradesh
29.2KLDIKaldhari  04:25-04:25-  2866.9 2919mSCRKaldhari Main Rd, Andhra Pradesh
30NDDNidadavolu Junction (3)  04:40-04:42-2m12874.53720mSCRNidadavolu jtn ph.no. 08813-210325, Andhra Pradesh
30.1BMGMBrahmanagudem (2)XO  04:48-04:48-  2878.0 3718mSCRNidadavolu, Andhra Pradesh
30.2CUChagalluX  04:55-04:55-  2882.3 3718mSCRWest Godavari, Andhra Pradesh
30.3PSDAPasivedala (2)O  05:00-05:00-  2885.8 3722mSCRWest Godavari District, Andhra Pradesh
30.4KVRKovvur (3)X  05:05-05:05-  2888.8 3725mSCRWest Godavari, Andhra Pradesh
30.5GVNGodavari  05:13-05:13-  2893.7 3724mSCRRajahmundry, Andhra Pradesh
31RJYRajahmundry (3)XO  05:18-05:20-2m32896.76323mSCRRajahmundry ph.no. 0883-2420541, Andhra Pradesh
31.1KYMKadiyam (1)  05:30-05:30-  2906.7 6315mSCREast Godavari, Andhra Pradesh
31.2KSVMKesavaramX  05:35-05:35-  2912.3 6316mSCRKesavaram, Andhra Pradesh
31.3DWPDwarapudi (3)X  05:39-05:39-  2916.6 6320mSCREast Godavari District, Andhra Pradesh
31.4APTAnaparti (3)X  05:43-05:43-  2920.3 6321mSCREast Godavari District, Andhra Pradesh
31.5BBPMBalabhadrapuram  05:48-05:48-  2926.4 6323mSCRBalabhadhrapuram, Andhra Pradesh
31.6BVLBikkavolu  05:52-05:52-  2929.7 6316mSCREast Godavari District, Andhra Pradesh
31.7PBDPeddabrahmadevam  05:57-05:57-  2935.4 6316mSCRPedabramadvam, Andhra Pradesh
31.8MPUMedapadu  05:59-05:59-  2937.8 6320mSCRMedapadu, Andhra Pradesh
31.9GDPTGudaparti  06:04-06:04-  2942.3 6321mSCRVetlapalem, Andhra Pradesh
32SLOSamalkot Junction (3)  06:08-06:10-2m12946.92118mSCRSamalkot, Andhra Pradesh
33CCTKakinada Town Junction (3)  06:45--22959.3-11mSCREast Godavari, Andhra Pradesh
Scroll to Top
Scroll to Bottom